Time;durP1;ratioP1;P1;durP2;ratioP2;P2;SDS_P1;SDS_P2;PMS_P1;PMS_P2;Temp;Humidity;BMP_temperature;BMP_pressure;BME280_temperature;BME280_humidity;BME280_pressure;Samples;Min_cycle;Max_cycle;Signal;HPM_P1;HPM_P2
2021/10/28 00:14:27;;;;;;;50.30;28.00;;;7.50;99.90;;;;;;5047391;28;20490;-50
2021/10/28 00:16:57;;;;;;;43.58;26.67;;;7.50;99.90;;;;;;5051165;28;20216;-51
2021/10/28 00:19:26;;;;;;;41.53;28.27;;;7.50;99.90;;;;;;5046981;28;20203;-51
2021/10/28 00:21:55;;;;;;;51.30;30.88;;;7.50;99.90;;;;;;5055471;28;20510;-48
2021/10/28 00:24:22;;;;;;;42.10;30.00;;;7.50;99.90;;;;;;5054147;28;20506;-48
2021/10/28 00:26:50;;;;;;;40.15;27.45;;;7.40;99.90;;;;;;5047473;28;20473;-47
2021/10/28 00:29:19;;;;;;;55.90;29.73;;;7.30;99.90;;;;;;5056070;28;20440;-52
2021/10/28 00:31:48;;;;;;;44.80;28.92;;;7.40;99.90;;;;;;5053005;28;20259;-53
2021/10/28 00:34:16;;;;;;;55.65;30.65;;;7.50;99.90;;;;;;5056932;28;20572;-47
2021/10/28 00:36:49;;;;;;;48.05;30.08;;;7.40;99.90;;;;;;5054665;28;20242;-47
2021/10/28 00:39:16;;;;;;;46.58;30.60;;;7.40;99.90;;;;;;5058241;28;20203;-49
2021/10/28 00:41:43;;;;;;;48.47;27.98;;;7.50;99.90;;;;;;5057860;28;20195;-52
2021/10/28 00:44:11;;;;;;;49.47;28.65;;;7.40;99.90;;;;;;5053329;28;20230;-49
2021/10/28 00:46:39;;;;;;;47.95;28.50;;;7.50;99.90;;;;;;5057263;28;20415;-54
2021/10/28 00:49:09;;;;;;;50.10;30.95;;;7.50;99.90;;;;;;5052017;28;20482;-48
2021/10/28 00:51:38;;;;;;;52.97;29.38;;;7.50;99.90;;;;;;5057269;28;20258;-49
2021/10/28 00:54:07;;;;;;;48.40;29.45;;;7.50;99.90;;;;;;5053805;28;20285;-47
2021/10/28 00:56:34;;;;;;;54.88;31.60;;;7.40;99.90;;;;;;5051173;28;20257;-51
2021/10/28 00:59:01;;;;;;;44.00;29.23;;;7.30;99.90;;;;;;5054916;28;20199;-52
2021/10/28 01:01:29;;;;;;;49.13;28.70;;;7.10;99.90;;;;;;5045579;28;20207;-48
2021/10/28 01:03:57;;;;;;;51.58;28.05;;;7.10;99.90;;;;;;5056352;28;20325;-47
2021/10/28 01:06:25;;;;;;;55.45;34.33;;;7.20;99.90;;;;;;5046569;28;20261;-54
2021/10/28 01:08:52;;;;;;;49.58;30.88;;;7.30;99.90;;;;;;5057403;28;20261;-48
2021/10/28 01:11:20;;;;;;;56.47;32.70;;;7.20;99.90;;;;;;5042671;28;20201;-49
2021/10/28 01:13:47;;;;;;;59.60;35.05;;;7.00;99.90;;;;;;5043593;28;20224;-47
2021/10/28 01:16:15;;;;;;;49.20;33.15;;;6.60;99.90;;;;;;5058393;28;20241;-50
2021/10/28 01:18:43;;;;;;;54.25;31.33;;;6.60;99.90;;;;;;5051098;28;20204;-51
2021/10/28 01:21:10;;;;;;;50.60;31.08;;;6.50;99.90;;;;;;5057234;28;20207;-51
2021/10/28 01:23:41;;;;;;;47.40;29.63;;;6.40;99.90;;;;;;5053617;28;20200;-47
2021/10/28 01:26:11;;;;;;;57.42;30.88;;;6.40;99.90;;;;;;5048862;28;20210;-47
2021/10/28 01:28:48;;;;;;;50.78;32.47;;;6.40;99.90;;;;;;5050400;28;20208;-52
2021/10/28 01:31:15;;;;;;;50.72;29.95;;;6.40;99.90;;;;;;5051363;28;20207;-50
2021/10/28 01:33:43;;;;;;;56.08;32.10;;;6.70;99.90;;;;;;5051850;28;20228;-47
2021/10/28 01:36:10;;;;;;;59.40;34.03;;;6.80;99.90;;;;;;5052172;28;20204;-48
2021/10/28 01:38:38;;;;;;;52.65;32.08;;;6.90;99.90;;;;;;5048616;28;20495;-48
2021/10/28 01:41:06;;;;;;;48.08;30.80;;;6.40;99.90;;;;;;5050439;28;20207;-51
2021/10/28 01:43:34;;;;;;;58.03;31.10;;;6.30;99.90;;;;;;5048204;28;20549;-51
2021/10/28 01:46:03;;;;;;;53.63;31.83;;;6.30;99.90;;;;;;5050288;28;20262;-50
2021/10/28 01:48:31;;;;;;;51.95;32.17;;;6.30;99.90;;;;;;5051765;28;20205;-49
2021/10/28 01:50:59;;;;;;;58.15;32.33;;;6.30;99.90;;;;;;5052885;28;20269;-47
2021/10/28 01:53:26;;;;;;;60.55;36.22;;;6.20;99.90;;;;;;5053667;28;20272;-49
2021/10/28 01:55:53;;;;;;;48.83;32.30;;;6.30;99.90;;;;;;5054912;28;20196;-51
2021/10/28 01:58:22;;;;;;;48.47;31.10;;;6.30;99.90;;;;;;5037165;28;20223;-49
2021/10/28 02:00:51;;;;;;;49.05;30.00;;;6.20;99.90;;;;;;5049327;28;20572;-53
2021/10/28 02:03:19;;;;;;;48.05;33.33;;;6.10;99.90;;;;;;5054978;28;20207;-53
2021/10/28 02:05:48;;;;;;;54.80;34.50;;;6.10;99.90;;;;;;5050507;28;20234;-51
2021/10/28 02:08:16;;;;;;;55.33;31.13;;;6.20;99.90;;;;;;5054069;28;20227;-51
2021/10/28 02:10:43;;;;;;;54.22;33.17;;;6.20;99.90;;;;;;5052559;28;20489;-47
2021/10/28 02:13:12;;;;;;;54.60;29.60;;;6.30;99.90;;;;;;5053907;28;20223;-50
2021/10/28 02:15:41;;;;;;;47.17;30.85;;;6.50;99.90;;;;;;5052436;28;20210;-53
2021/10/28 02:18:08;;;;;;;63.40;34.38;;;6.00;99.90;;;;;;5053196;28;20413;-55
2021/10/28 02:20:36;;;;;;;60.22;32.83;;;6.10;99.90;;;;;;5049144;28;20200;-55
2021/10/28 02:23:03;;;;;;;55.33;31.88;;;6.20;99.90;;;;;;5058302;28;20470;-52
2021/10/28 02:25:31;;;;;;;52.22;34.25;;;6.20;99.90;;;;;;5053421;28;20261;-52
2021/10/28 02:27:58;;;;;;;54.63;31.33;;;6.40;99.90;;;;;;5056224;28;20277;-48
2021/10/28 02:30:26;;;;;;;55.90;32.33;;;6.30;99.90;;;;;;5050799;28;20409;-52
2021/10/28 02:32:53;;;;;;;56.60;33.22;;;6.20;99.90;;;;;;5055488;28;20211;-49
2021/10/28 02:35:20;;;;;;;49.38;29.52;;;6.20;99.90;;;;;;5052092;28;20222;-52
2021/10/28 02:37:47;;;;;;;52.47;33.33;;;6.30;99.90;;;;;;5055920;28;20273;-47
2021/10/28 02:40:15;;;;;;;59.50;32.42;;;6.30;99.90;;;;;;5050845;28;20195;-51
2021/10/28 02:42:43;;;;;;;54.92;32.45;;;6.20;99.90;;;;;;5051978;28;20268;-48
2021/10/28 02:45:11;;;;;;;52.58;32.92;;;6.20;99.90;;;;;;5053736;28;20203;-48
2021/10/28 02:47:39;;;;;;;51.15;31.63;;;6.10;99.90;;;;;;5051968;28;20269;-46
2021/10/28 02:50:07;;;;;;;45.58;30.05;;;6.10;99.90;;;;;;5055538;28;20214;-50
2021/10/28 02:52:34;;;;;;;56.78;31.35;;;6.20;99.90;;;;;;5052644;28;20215;-47
2021/10/28 02:55:04;;;;;;;61.80;32.75;;;6.20;99.90;;;;;;5056919;28;20273;-51
2021/10/28 02:57:31;;;;;;;55.85;31.98;;;6.10;99.90;;;;;;5048554;28;20255;-51
2021/10/28 02:59:59;;;;;;;58.40;29.42;;;6.20;99.90;;;;;;5035829;28;20200;-54
2021/10/28 03:02:26;;;;;;;56.25;31.83;;;6.10;99.90;;;;;;5040474;28;20207;-50
2021/10/28 03:04:54;;;;;;;53.15;35.08;;;6.10;99.90;;;;;;5052387;28;20199;-52
2021/10/28 03:07:21;;;;;;;71.22;35.47;;;6.00;99.90;;;;;;5044193;28;20450;-47
2021/10/28 03:09:48;;;;;;;57.03;33.05;;;6.00;99.90;;;;;;5033534;28;20672;-49
2021/10/28 03:12:15;;;;;;;52.42;32.30;;;6.20;99.90;;;;;;5048698;28;20265;-50
2021/10/28 03:14:56;;;;;;;61.50;35.55;;;6.20;99.90;;;;;;5047232;28;20476;-46
2021/10/28 03:28:02;;;;;;;58.22;34.78;;;5.80;99.90;;;;;;5072199;22;20269;-46
2021/10/28 03:30:30;;;;;;;65.20;35.47;;;5.80;99.90;;;;;;5047124;28;20207;-54
2021/10/28 03:33:00;;;;;;;56.88;32.58;;;5.80;99.90;;;;;;5053912;28;20203;-47
2021/10/28 03:35:27;;;;;;;55.92;35.13;;;5.80;99.90;;;;;;5049151;28;20447;-49
2021/10/28 03:37:59;;;;;;;64.00;35.15;;;5.70;99.90;;;;;;5025865;28;20213;-51
2021/10/28 04:18:32;;;;;;;58.20;32.25;;;6.20;99.90;;;;;;5037537;28;20577;-50
2021/10/28 04:21:35;;;;;;;54.35;33.03;;;6.10;99.90;;;;;;5030841;28;20223;-47
2021/10/28 04:29:19;;;;;;;54.25;32.70;;;5.80;99.90;;;;;;5032236;28;20235;-53
2021/10/28 04:31:46;;;;;;;54.95;34.65;;;5.80;99.90;;;;;;5037841;28;20217;-53
2021/10/28 04:34:13;;;;;;;54.40;32.97;;;5.80;99.90;;;;;;5034682;28;20227;-50
2021/10/28 04:36:41;;;;;;;45.60;30.50;;;5.80;99.90;;;;;;5039112;28;20227;-52
2021/10/28 04:39:09;;;;;;;49.53;33.22;;;5.80;99.90;;;;;;5034500;28;20234;-49
2021/10/28 04:41:38;;;;;;;50.58;32.10;;;5.80;99.90;;;;;;5034404;28;20200;-53
2021/10/28 04:44:11;;;;;;;50.97;30.58;;;5.80;99.90;;;;;;5035412;28;20223;-51
2021/10/28 04:46:40;;;;;;;49.90;31.75;;;5.90;99.90;;;;;;5033973;28;20269;-54
2021/10/28 04:49:07;;;;;;;46.28;28.33;;;5.90;99.90;;;;;;5030736;28;20208;-49
2021/10/28 04:51:35;;;;;;;50.10;34.63;;;5.80;99.90;;;;;;5028371;28;20514;-53
2021/10/28 04:54:02;;;;;;;50.10;30.63;;;5.80;99.90;;;;;;5035327;28;20227;-47
2021/10/28 04:56:29;;;;;;;57.00;30.30;;;5.90;99.90;;;;;;5018520;28;20217;-54
2021/10/28 04:58:56;;;;;;;54.97;32.67;;;5.80;99.90;;;;;;5027200;28;20276;-53
2021/10/28 05:01:25;;;;;;;54.00;28.75;;;5.80;99.90;;;;;;5034627;28;20204;-49
2021/10/28 05:03:53;;;;;;;53.17;32.25;;;5.70;99.90;;;;;;5030752;28;20211;-49
2021/10/28 05:06:21;;;;;;;56.72;31.63;;;5.80;99.90;;;;;;5030536;28;20424;-48
2021/10/28 05:08:48;;;;;;;49.65;32.67;;;5.70;99.90;;;;;;5019409;28;20411;-47
2021/10/28 05:11:17;;;;;;;54.70;32.20;;;5.80;99.90;;;;;;5039405;28;20257;-51
2021/10/28 05:13:45;;;;;;;52.22;32.88;;;5.80;99.90;;;;;;5033641;28;20208;-46
2021/10/28 05:16:13;;;;;;;58.65;34.22;;;5.80;99.90;;;;;;5032897;28;20208;-53
2021/10/28 05:18:41;;;;;;;51.60;29.70;;;5.70;99.90;;;;;;5034055;28;20411;-48
2021/10/28 05:21:10;;;;;;;50.47;32.83;;;5.70;99.90;;;;;;5032606;28;20200;-46
2021/10/28 05:23:38;;;;;;;54.35;33.42;;;5.80;99.90;;;;;;5042147;28;20302;-51
2021/10/28 05:26:07;;;;;;;46.80;28.98;;;6.00;99.90;;;;;;5045523;28;20208;-47
2021/10/28 05:28:35;;;;;;;48.28;27.35;;;6.00;99.90;;;;;;5027462;28;20528;-48
2021/10/28 05:31:03;;;;;;;56.25;33.38;;;6.00;99.90;;;;;;5034767;28;20204;-50
2021/10/28 05:33:30;;;;;;;50.88;30.55;;;5.90;99.90;;;;;;5030729;28;20503;-48
2021/10/28 05:35:57;;;;;;;57.08;31.00;;;5.90;99.90;;;;;;5036684;28;20235;-51
2021/10/28 05:38:25;;;;;;;43.58;29.55;;;5.80;99.90;;;;;;5035857;28;20454;-53
2021/10/28 05:40:52;;;;;;;46.03;30.55;;;5.80;99.90;;;;;;5029727;28;20201;-48
2021/10/28 05:43:19;;;;;;;47.33;29.55;;;5.70;99.90;;;;;;5033668;28;20483;-52
2021/10/28 05:45:48;;;;;;;55.83;30.55;;;5.80;99.90;;;;;;5031619;28;20243;-47
2021/10/28 05:48:16;;;;;;;53.72;30.60;;;5.80;99.90;;;;;;5039733;28;20223;-47
2021/10/28 05:50:46;;;;;;;50.38;30.27;;;5.70;99.90;;;;;;5028477;28;20204;-48
2021/10/28 05:53:15;;;;;;;53.35;33.40;;;5.70;99.90;;;;;;5038450;28;20231;-57
2021/10/28 05:55:42;;;;;;;61.13;34.13;;;5.50;99.90;;;;;;5033607;28;20238;-52
2021/10/28 05:58:10;;;;;;;50.13;31.85;;;5.50;99.90;;;;;;5023689;28;20271;-48
2021/10/28 06:00:37;;;;;;;58.28;31.77;;;5.50;99.90;;;;;;5034420;28;20230;-49
2021/10/28 06:03:04;;;;;;;48.15;32.05;;;5.60;99.90;;;;;;5033799;28;20212;-53
2021/10/28 06:05:36;;;;;;;48.60;31.55;;;5.70;99.90;;;;;;5036971;28;20245;-49
2021/10/28 06:08:04;;;;;;;50.80;32.05;;;5.60;99.90;;;;;;5033903;28;20277;-49
2021/10/28 06:10:31;;;;;;;49.45;31.90;;;5.70;99.90;;;;;;5031357;28;20204;-48
2021/10/28 06:13:02;;;;;;;51.75;30.00;;;5.60;99.90;;;;;;5031645;28;20208;-48
2021/10/28 06:15:31;;;;;;;54.15;31.88;;;5.70;99.90;;;;;;5030222;28;20234;-52
2021/10/28 06:18:10;;;;;;;51.55;31.02;;;5.70;99.90;;;;;;5032863;28;20231;-50
2021/10/28 06:20:37;;;;;;;53.85;34.25;;;5.70;99.90;;;;;;5028220;28;20207;-52
2021/10/28 06:23:06;;;;;;;61.38;33.13;;;5.70;99.90;;;;;;5036635;28;20258;-50
2021/10/28 06:25:34;;;;;;;62.55;34.47;;;5.80;99.90;;;;;;5032392;28;20222;-53
2021/10/28 06:28:03;;;;;;;54.45;32.83;;;5.90;99.90;;;;;;5034708;28;20232;-51
2021/10/28 06:30:30;;;;;;;46.42;31.73;;;5.80;99.90;;;;;;5037373;28;20212;-52
2021/10/28 06:33:02;;;;;;;52.70;32.30;;;5.90;99.90;;;;;;5036244;28;20204;-51
2021/10/28 06:35:29;;;;;;;51.95;33.40;;;6.10;99.90;;;;;;5033034;28;20223;-50
2021/10/28 06:37:57;;;;;;;51.30;34.42;;;6.30;99.90;;;;;;5034103;28;20222;-50
2021/10/28 06:40:25;;;;;;;46.30;29.98;;;6.30;99.90;;;;;;5030741;28;20470;-52
2021/10/28 06:42:52;;;;;;;52.67;31.83;;;6.20;99.90;;;;;;5033473;28;20211;-55
2021/10/28 06:45:20;;;;;;;51.35;30.67;;;6.40;99.90;;;;;;5028094;28;20222;-55
2021/10/28 06:47:51;;;;;;;44.55;31.55;;;6.40;99.90;;;;;;5032923;28;20454;-51
2021/10/28 06:50:20;;;;;;;53.80;33.72;;;6.40;99.90;;;;;;5030858;28;20266;-49
2021/10/28 07:03:32;;;;;;;46.80;29.25;;;7.30;99.90;;;;;;5041211;28;20218;-52
2021/10/28 07:06:08;;;;;;;42.78;26.98;;;7.40;99.90;;;;;;5040220;28;20515;-50
2021/10/28 07:08:37;;;;;;;39.40;27.63;;;7.60;99.90;;;;;;5022299;28;20232;-49
2021/10/28 07:11:28;;;;;;;41.47;28.45;;;7.80;99.90;;;;;;5037410;28;20444;-46
2021/10/28 07:13:54;;;;;;;158.48;73.93;;;7.90;99.90;;;;;;5029372;28;20201;-47
2021/10/28 07:16:28;;;;;;;302.60;126.63;;;8.00;99.90;;;;;;5034906;28;20266;-48
2021/10/28 07:27:11;;;;;;;39.33;27.20;;;10.10;99.90;;;;;;5031960;28;20508;-51
2021/10/28 07:29:57;;;;;;;77.78;39.22;;;11.20;99.90;;;;;;5023937;28;20211;-51
2021/10/28 08:00:04;;;;;;;52.30;31.60;;;17.00;99.90;;;;;;5032675;28;20422;-52
2021/10/28 08:24:05;;;;;;;21.17;15.40;;;20.40;99.90;;;;;;5030780;28;20724;-48
2021/10/28 08:29:32;;;;;;;19.90;16.20;;;19.60;99.90;;;;;;5030157;28;20445;-51
2021/10/28 08:32:01;;;;;;;27.17;19.90;;;18.80;99.90;;;;;;5035561;28;20608;-53
2021/10/28 08:34:31;;;;;;;18.63;16.60;;;19.10;99.90;;;;;;5035314;28;20498;-48
2021/10/28 08:37:07;;;;;;;21.43;16.13;;;18.40;99.90;;;;;;5042993;28;20454;-55
2021/10/28 08:39:36;;;;;;;18.10;14.00;;;18.20;99.90;;;;;;5044173;28;20414;-56
2021/10/28 08:42:08;;;;;;;20.40;16.03;;;17.20;99.90;;;;;;5036125;28;20435;-50
2021/10/28 08:44:40;;;;;;;20.47;15.70;;;17.10;99.90;;;;;;5037695;28;20483;-56
2021/10/28 08:47:11;;;;;;;18.77;14.83;;;17.50;99.90;;;;;;5035777;28;20473;-49
2021/10/28 08:49:46;;;;;;;20.93;15.87;;;18.20;99.90;;;;;;5042669;28;20410;-51
2021/10/28 08:55:18;;;;;;;17.83;15.37;;;17.10;99.90;;;;;;5041819;28;20449;-49
2021/10/28 09:29:48;;;;;;;16.65;14.85;;;14.20;99.90;;;;;;5051006;22;20236;-54
2021/10/28 09:45:04;;;;;;;20.55;14.65;;;14.10;99.90;;;;;;5074419;28;20232;-53
2021/10/28 09:47:42;;;;;;;14.13;12.05;;;14.10;99.90;;;;;;5071540;28;20218;-56
2021/10/28 09:52:55;;;;;;;20.98;14.85;;;14.20;99.90;;;;;;5070858;28;20238;-57
2021/10/28 09:58:31;;;;;;;18.10;13.52;;;14.40;99.90;;;;;;5069948;28;20227;-59
2021/10/28 10:01:01;;;;;;;14.43;12.73;;;14.30;99.90;;;;;;5068847;28;20529;-52
2021/10/28 10:03:32;;;;;;;15.25;13.63;;;14.40;99.90;;;;;;5070524;28;20226;-52
2021/10/28 10:06:03;;;;;;;19.27;12.57;;;14.30;99.90;;;;;;5073925;28;20241;-53
2021/10/28 10:08:32;;;;;;;17.27;13.63;;;14.40;99.90;;;;;;5070907;28;20222;-54
2021/10/28 10:11:00;;;;;;;20.95;12.52;;;14.60;99.90;;;;;;5074615;28;20195;-51
2021/10/28 10:13:29;;;;;;;14.50;12.40;;;14.70;99.90;;;;;;5072038;28;20206;-56
2021/10/28 10:16:01;;;;;;;17.50;10.23;;;14.80;99.90;;;;;;5076116;28;20199;-56
2021/10/28 10:18:31;;;;;;;15.90;13.18;;;14.80;99.90;;;;;;5079001;28;20286;-56
2021/10/28 11:28:47;;;;;;;18.98;9.85;;;16.20;99.90;;;;;;5058680;28;20254;-52
2021/10/28 11:31:38;;;;;;;8.50;7.57;;;16.30;99.90;;;;;;5060583;28;20255;-58
2021/10/28 12:17:02;;;;;;;9.33;8.40;;;16.60;99.90;;;;;;5060173;28;20666;-53
2021/10/28 12:45:06;;;;;;;11.47;9.53;;;16.60;99.90;;;;;;5059829;28;20468;-57
2021/10/28 12:50:26;;;;;;;11.40;9.23;;;16.40;99.90;;;;;;5056136;28;20815;-53
2021/10/28 13:48:22;;;;;;;16.23;13.47;;;16.00;99.90;;;;;;5047022;28;20460;-52
2021/10/28 13:56:20;;;;;;;25.20;14.60;;;15.80;99.90;;;;;;5057049;28;20275;-52
2021/10/28 14:36:47;;;;;;;16.73;12.90;;;15.20;99.90;;;;;;5065681;28;20285;-54
2021/10/28 15:29:22;;;;;;;13.80;11.85;;;13.50;99.90;;;;;;5058235;28;20211;-52
2021/10/28 16:23:54;;;;;;;16.45;11.60;;;12.60;99.90;;;;;;5087285;28;20194;-49
2021/10/28 16:26:21;;;;;;;18.88;13.45;;;12.70;99.90;;;;;;5073235;28;20247;-52
2021/10/28 16:28:49;;;;;;;19.33;12.82;;;12.60;99.90;;;;;;5070693;28;20209;-55
2021/10/28 16:31:17;;;;;;;17.30;12.63;;;12.50;99.90;;;;;;5081825;28;20221;-50
2021/10/28 16:33:44;;;;;;;14.38;12.35;;;12.50;99.90;;;;;;5093335;28;20228;-47
2021/10/28 16:36:12;;;;;;;21.40;13.27;;;12.40;99.90;;;;;;5079221;28;20240;-54
2021/10/28 16:38:39;;;;;;;19.77;12.43;;;12.50;99.90;;;;;;5080617;28;20218;-51
2021/10/28 16:41:06;;;;;;;23.23;13.57;;;12.50;99.90;;;;;;5080363;28;20204;-49
2021/10/28 16:43:34;;;;;;;23.73;13.98;;;12.50;99.90;;;;;;5077799;28;20199;-49
2021/10/28 16:46:01;;;;;;;28.17;16.27;;;12.40;99.90;;;;;;5084868;28;20462;-54
2021/10/28 16:48:29;;;;;;;18.00;14.60;;;12.60;99.90;;;;;;5080452;28;20226;-48
2021/10/28 16:50:56;;;;;;;15.70;12.23;;;12.50;99.90;;;;;;5075194;28;20200;-51
2021/10/28 16:53:23;;;;;;;16.92;13.32;;;12.40;99.90;;;;;;5062509;28;20202;-53
2021/10/28 16:55:58;;;;;;;23.48;15.45;;;12.40;99.90;;;;;;5079454;28;20513;-51
2021/10/28 16:58:27;;;;;;;20.23;15.63;;;12.40;99.90;;;;;;5082646;28;20219;-52
2021/10/28 17:00:54;;;;;;;19.40;14.40;;;12.50;99.90;;;;;;5075098;28;20502;-53
2021/10/28 17:03:22;;;;;;;23.17;14.90;;;12.50;99.90;;;;;;5084922;28;20203;-50
2021/10/28 17:05:50;;;;;;;24.23;16.25;;;12.30;99.90;;;;;;5077177;28;20195;-48
2021/10/28 17:08:17;;;;;;;24.65;16.25;;;12.20;99.90;;;;;;5072686;28;20222;-51
2021/10/28 17:10:45;;;;;;;18.10;13.40;;;12.30;99.90;;;;;;5079126;28;20245;-49
2021/10/28 17:13:12;;;;;;;24.85;16.50;;;12.10;99.90;;;;;;5079672;28;20202;-48
2021/10/28 17:15:40;;;;;;;20.98;14.50;;;12.00;99.90;;;;;;5060890;28;20199;-53
2021/10/28 17:18:07;;;;;;;23.45;17.92;;;11.90;99.90;;;;;;5078991;28;20261;-48
2021/10/28 17:20:35;;;;;;;22.60;17.55;;;11.90;99.90;;;;;;5078023;28;20202;-50
2021/10/28 17:23:04;;;;;;;26.52;19.00;;;11.80;99.90;;;;;;5060558;28;20240;-49
2021/10/28 17:25:39;;;;;;;36.70;20.63;;;11.70;99.90;;;;;;5081003;28;20205;-52
2021/10/28 17:28:08;;;;;;;28.02;20.27;;;11.60;99.90;;;;;;5075992;28;20220;-47
2021/10/28 17:30:36;;;;;;;34.90;21.15;;;11.50;99.90;;;;;;5079371;28;20209;-52
2021/10/28 17:33:04;;;;;;;33.58;19.60;;;11.40;99.90;;;;;;5078225;28;20512;-51
2021/10/28 17:35:32;;;;;;;35.50;23.70;;;11.30;99.90;;;;;;5068476;28;20208;-48
2021/10/28 17:38:00;;;;;;;31.33;23.25;;;11.20;99.90;;;;;;5081051;28;20241;-52
2021/10/28 17:40:28;;;;;;;34.38;21.67;;;11.20;99.90;;;;;;5081596;28;20205;-51
2021/10/28 17:42:56;;;;;;;34.22;22.67;;;11.10;99.90;;;;;;5079591;28;20393;-49
2021/10/28 17:45:26;;;;;;;32.13;22.95;;;11.10;99.90;;;;;;5078520;28;20198;-46
2021/10/28 17:47:55;;;;;;;30.08;20.48;;;11.10;99.90;;;;;;5074396;28;20297;-51
2021/10/28 17:50:24;;;;;;;33.08;20.83;;;11.00;99.90;;;;;;5072043;28;20205;-49
2021/10/28 17:52:51;;;;;;;32.58;20.58;;;11.00;99.90;;;;;;5077755;28;20229;-48
2021/10/28 17:55:19;;;;;;;34.35;19.80;;;11.00;99.90;;;;;;5072379;28;20707;-49
2021/10/28 17:57:49;;;;;;;39.53;25.63;;;10.90;99.90;;;;;;5077056;28;20260;-54
2021/10/28 18:00:19;;;;;;;31.05;21.73;;;11.00;99.90;;;;;;5081224;28;20474;-50
2021/10/28 18:02:46;;;;;;;30.80;20.85;;;10.90;99.90;;;;;;5064085;28;20240;-52
2021/10/28 18:05:35;;;;;;;36.30;24.55;;;10.90;99.90;;;;;;5081381;28;20201;-46
2021/10/28 18:08:03;;;;;;;31.02;22.48;;;10.90;99.90;;;;;;5080881;28;20415;-51
2021/10/28 18:10:30;;;;;;;34.25;22.50;;;10.80;99.90;;;;;;5081922;28;20236;-49
2021/10/28 18:12:58;;;;;;;34.85;22.65;;;10.80;99.90;;;;;;5081666;28;20260;-55
2021/10/28 18:15:26;;;;;;;31.15;22.80;;;10.80;99.90;;;;;;5081435;28;20196;-50
2021/10/28 18:17:54;;;;;;;31.80;21.77;;;10.90;99.90;;;;;;5080601;28;20636;-53
2021/10/28 18:20:21;;;;;;;38.47;23.63;;;10.70;99.90;;;;;;5082920;28;20236;-48
2021/10/28 18:22:50;;;;;;;31.73;21.05;;;10.80;99.90;;;;;;5080627;28;20284;-49
2021/10/28 18:25:18;;;;;;;29.73;23.08;;;10.70;99.90;;;;;;5077440;28;20568;-47
2021/10/28 18:27:45;;;;;;;44.28;24.75;;;10.60;99.90;;;;;;5070009;28;20217;-50
2021/10/28 18:30:16;;;;;;;31.45;22.00;;;10.50;99.90;;;;;;5075805;28;20201;-51
2021/10/28 18:32:44;;;;;;;36.38;25.00;;;10.50;99.90;;;;;;5078395;28;20204;-53
2021/10/28 18:35:13;;;;;;;34.92;21.65;;;10.20;99.90;;;;;;5074953;28;20200;-48
2021/10/28 18:37:45;;;;;;;27.25;19.58;;;10.20;99.90;;;;;;5077415;28;20259;-52
2021/10/28 18:40:12;;;;;;;29.45;21.33;;;10.20;99.90;;;;;;5088735;28;20262;-51
2021/10/28 18:42:39;;;;;;;28.42;20.77;;;10.30;99.90;;;;;;5079172;28;20234;-48
2021/10/28 18:45:07;;;;;;;28.75;21.02;;;10.00;99.90;;;;;;5074177;28;20289;-48
2021/10/28 18:47:46;;;;;;;33.72;22.63;;;9.90;99.90;;;;;;5085002;28;20423;-54
2021/10/28 18:50:14;;;;;;;29.48;19.65;;;10.00;99.90;;;;;;5080290;28;21096;-48
2021/10/28 18:52:41;;;;;;;28.95;18.77;;;9.80;99.90;;;;;;5082213;28;20200;-51
2021/10/28 18:55:08;;;;;;;29.63;20.55;;;9.90;99.90;;;;;;5079827;28;20203;-50
2021/10/28 18:57:35;;;;;;;34.53;22.70;;;9.90;99.90;;;;;;5088711;28;20218;-53
2021/10/28 19:00:08;;;;;;;29.13;20.90;;;9.90;99.90;;;;;;5083150;28;20236;-55
2021/10/28 19:02:36;;;;;;;33.05;22.20;;;9.90;99.90;;;;;;5081598;28;20188;-53
2021/10/28 19:05:06;;;;;;;37.22;21.73;;;9.70;99.90;;;;;;5070608;28;20211;-52
2021/10/28 19:07:38;;;;;;;34.90;22.83;;;9.60;99.90;;;;;;5070857;28;20227;-52
2021/10/28 19:10:06;;;;;;;36.92;23.38;;;9.50;99.90;;;;;;5080370;28;20275;-49
2021/10/28 19:12:34;;;;;;;54.97;32.03;;;9.30;99.90;;;;;;5082596;28;20244;-50
2021/10/28 19:15:01;;;;;;;69.95;40.92;;;9.10;99.90;;;;;;5079673;28;20215;-50
2021/10/28 19:17:28;;;;;;;92.60;43.10;;;9.10;99.90;;;;;;5075995;28;20512;-48
2021/10/28 19:19:55;;;;;;;52.00;29.90;;;9.00;99.90;;;;;;5065605;28;20246;-48
2021/10/28 19:22:29;;;;;;;71.07;44.03;;;9.00;99.90;;;;;;5064538;28;20200;-51
2021/10/28 19:25:02;;;;;;;51.45;31.42;;;9.00;99.90;;;;;;5065619;28;20514;-50
2021/10/28 19:27:34;;;;;;;35.35;24.08;;;8.90;99.90;;;;;;5069498;28;20569;-57
2021/10/28 19:30:32;;;;;;;32.75;23.17;;;8.80;99.90;;;;;;5076869;28;20283;-53
2021/10/28 19:32:58;;;;;;;36.60;24.95;;;8.80;99.90;;;;;;5071632;28;20434;-52
2021/10/28 19:35:27;;;;;;;36.80;24.40;;;8.70;99.90;;;;;;5062222;28;20254;-48
2021/10/28 19:48:16;;;;;;;32.13;23.17;;;8.70;99.90;;;;;;5062340;28;20251;-51
2021/10/28 19:50:46;;;;;;;39.60;24.20;;;8.70;99.90;;;;;;5063762;28;20208;-55
2021/10/28 19:53:14;;;;;;;26.25;20.45;;;8.70;99.90;;;;;;5061751;28;20641;-49
2021/10/28 19:55:42;;;;;;;30.48;23.80;;;8.70;99.90;;;;;;5064159;28;20436;-49
2021/10/28 19:58:15;;;;;;;35.83;23.52;;;8.50;99.90;;;;;;5066391;28;20215;-50
2021/10/28 20:06:07;;;;;;;43.63;30.70;;;8.50;99.90;;;;;;5068251;28;20196;-49
2021/10/28 20:14:50;;;;;;;35.63;23.73;;;8.50;99.90;;;;;;5011758;28;20450;-51
2021/10/28 20:20:29;;;;;;;34.85;21.95;;;8.30;99.90;;;;;;5062833;28;20254;-52
2021/10/28 20:22:57;;;;;;;29.65;21.65;;;8.20;99.90;;;;;;5065604;28;20350;-52
2021/10/28 20:25:27;;;;;;;31.80;21.70;;;8.10;99.90;;;;;;5074140;28;20215;-48
2021/10/28 20:27:56;;;;;;;28.15;20.48;;;8.00;99.90;;;;;;5081091;28;20237;-50
2021/10/28 20:30:33;;;;;;;29.25;20.13;;;8.10;99.90;;;;;;5081502;28;20198;-46
2021/10/28 20:33:00;;;;;;;33.15;20.05;;;8.10;99.90;;;;;;5085683;28;20198;-49
2021/10/28 20:35:41;;;;;;;35.00;22.10;;;8.00;99.90;;;;;;5077868;28;20241;-50
2021/10/28 20:38:08;;;;;;;32.53;21.35;;;8.00;99.90;;;;;;5080501;28;20554;-52
2021/10/28 20:40:35;;;;;;;32.88;22.73;;;8.00;99.90;;;;;;5078316;28;20230;-51
2021/10/28 20:43:03;;;;;;;24.95;19.65;;;7.80;99.90;;;;;;5085309;28;20398;-52
2021/10/28 20:45:30;;;;;;;31.48;21.50;;;7.70;99.90;;;;;;5088668;28;20221;-57
2021/10/28 20:47:57;;;;;;;34.97;22.27;;;7.80;99.90;;;;;;5089088;28;20215;-57
2021/10/28 20:50:26;;;;;;;31.10;21.42;;;7.80;99.90;;;;;;5083986;28;20206;-54
2021/10/28 20:52:55;;;;;;;33.78;21.05;;;7.80;99.90;;;;;;5074103;28;20199;-53
2021/10/28 20:55:23;;;;;;;28.85;20.77;;;7.70;99.90;;;;;;5080887;28;20395;-52
2021/10/28 20:57:51;;;;;;;29.75;22.42;;;7.70;99.90;;;;;;5078209;28;20269;-54
2021/10/28 21:00:21;;;;;;;34.35;21.55;;;7.60;99.90;;;;;;5080709;28;20222;-52
2021/10/28 21:02:54;;;;;;;28.10;19.17;;;7.70;99.90;;;;;;5090674;28;20268;-56
2021/10/28 21:05:22;;;;;;;29.13;20.33;;;7.60;99.90;;;;;;5081424;28;20195;-58
2021/10/28 21:07:51;;;;;;;24.40;17.75;;;7.50;99.90;;;;;;5079954;28;20215;-58
2021/10/28 21:10:23;;;;;;;31.05;20.15;;;7.50;99.90;;;;;;5093980;28;20229;-55
2021/10/28 21:12:53;;;;;;;28.50;20.77;;;7.50;99.90;;;;;;5085414;28;20225;-50
2021/10/28 21:15:20;;;;;;;23.48;18.13;;;7.50;99.90;;;;;;5086718;28;20258;-55
2021/10/28 21:17:47;;;;;;;30.55;18.85;;;7.50;99.90;;;;;;5088822;28;20218;-52
2021/10/28 21:20:15;;;;;;;27.95;19.40;;;7.50;99.90;;;;;;5074827;28;20222;-49
2021/10/28 21:22:42;;;;;;;26.70;19.50;;;7.60;99.90;;;;;;5076637;28;20394;-51
2021/10/28 21:25:12;;;;;;;26.60;17.83;;;7.60;99.90;;;;;;5083131;28;20191;-51
2021/10/28 21:27:41;;;;;;;26.92;19.17;;;7.50;99.90;;;;;;5079498;28;20253;-49
2021/10/28 21:30:22;;;;;;;23.73;16.38;;;7.40;99.90;;;;;;5072210;28;20367;-50
2021/10/28 21:32:54;;;;;;;26.42;15.75;;;7.40;99.90;;;;;;5078233;28;20226;-47
2021/10/28 21:35:21;;;;;;;24.33;18.05;;;7.50;99.90;;;;;;5077790;28;20203;-50
2021/10/28 21:37:49;;;;;;;27.00;18.05;;;7.60;99.90;;;;;;5091755;22;20246;-52
2021/10/28 21:40:18;;;;;;;26.20;17.42;;;7.70;99.90;;;;;;5061634;28;20587;-53
2021/10/28 21:42:45;;;;;;;28.40;17.27;;;7.90;99.90;;;;;;5048288;28;20195;-54
2021/10/28 21:45:16;;;;;;;31.00;18.92;;;7.70;99.90;;;;;;5064095;28;20204;-53
2021/10/28 21:47:46;;;;;;;27.08;17.52;;;7.50;99.90;;;;;;5079935;28;20650;-53
2021/10/28 21:50:15;;;;;;;33.25;19.30;;;7.50;99.90;;;;;;5064918;28;20293;-51
2021/10/28 21:52:47;;;;;;;25.60;17.50;;;7.40;99.90;;;;;;5071652;28;20198;-50
2021/10/28 22:00:53;;;;;;;24.35;18.67;;;7.40;99.90;;;;;;5075144;28;20218;-55
2021/10/28 22:06:43;;;;;;;28.88;18.50;;;7.30;99.90;;;;;;5069278;28;20202;-54
2021/10/28 22:25:41;;;;;;;28.98;17.27;;;7.10;99.90;;;;;;5066952;28;20206;-52